Time;durP1;ratioP1;P1;durP2;ratioP2;P2;SDS_P1;SDS_P2;PMS_P1;PMS_P2;Temp;Humidity;BMP_temperature;BMP_pressure;BME280_temperature;BME280_humidity;BME280_pressure;Samples;Min_cycle;Max_cycle;Signal;HPM_P1;HPM_P2
2022/02/07 00:01:00;;;;;;;23.98;10.55;;;;;;;3.88;56.01;93607.41;5065074;28;20245;-72
2022/02/07 00:03:45;;;;;;;26.08;11.15;;;;;;;3.83;56.11;93600.34;5064875;28;20020;-70
2022/02/07 00:06:13;;;;;;;27.55;11.00;;;;;;;3.82;56.15;93615.38;5064718;28;20021;-72
2022/02/07 00:08:41;;;;;;;24.40;10.93;;;;;;;3.87;56.19;93629.56;5063530;28;20941;-72
2022/02/07 00:11:06;;;;;;;26.05;11.70;;;;;;;3.87;56.06;93603.19;5064634;28;20036;-72
2022/02/07 00:13:32;;;;;;;25.67;10.40;;;;;;;3.81;56.21;93602.47;5064579;28;20025;-72
2022/02/07 00:15:58;;;;;;;27.27;10.30;;;;;;;3.76;56.51;93613.81;5064549;28;20032;-72
2022/02/07 00:18:23;;;;;;;26.40;11.82;;;;;;;3.73;56.39;93601.22;5064243;28;20029;-72
2022/02/07 00:20:53;;;;;;;26.65;11.02;;;;;;;3.74;56.63;93594.88;5064830;28;20025;-72
2022/02/07 00:23:18;;;;;;;28.33;11.05;;;;;;;3.77;56.68;93609.38;5064673;28;20341;-72
2022/02/07 00:25:44;;;;;;;26.67;12.48;;;;;;;3.76;56.78;93595.38;5063657;28;20032;-72
2022/02/07 00:28:10;;;;;;;20.35;10.00;;;;;;;3.67;56.67;93593.63;5064468;28;20028;-72
2022/02/07 00:30:35;;;;;;;24.83;10.88;;;;;;;3.63;56.96;93596.03;5064322;28;20050;-72
2022/02/07 00:33:03;;;;;;;28.38;11.48;;;;;;;3.60;57.04;93588.66;5064384;28;20020;-72
2022/02/07 00:35:29;;;;;;;29.70;11.63;;;;;;;3.62;57.07;93586.53;5064277;28;20039;-72
2022/02/07 00:38:04;;;;;;;24.80;12.20;;;;;;;3.59;57.00;93587.88;5064225;28;20215;-72
2022/02/07 00:43:16;;;;;;;27.38;12.95;;;;;;;3.53;57.42;93567.13;5064202;28;20266;-72
2022/02/07 00:45:51;;;;;;;23.27;11.23;;;;;;;3.51;57.52;93545.53;5064106;28;20028;-72
2022/02/07 00:48:17;;;;;;;25.73;10.60;;;;;;;3.50;57.90;93544.75;5064044;28;20020;-72
2022/02/07 00:50:43;;;;;;;23.27;10.25;;;;;;;3.52;57.81;93552.34;5064055;28;20048;-71
2022/02/07 00:53:13;;;;;;;26.40;10.15;;;;;;;3.44;57.67;93551.13;5063934;28;20096;-71
2022/02/07 00:55:38;;;;;;;22.25;11.13;;;;;;;3.44;58.01;93535.31;5063932;28;20032;-71
2022/02/07 00:58:06;;;;;;;21.15;9.77;;;;;;;3.44;58.32;93529.22;5063636;28;20028;-71
2022/02/07 01:00:32;;;;;;;27.05;11.35;;;;;;;3.39;58.39;93544.03;5063680;28;20303;-71
2022/02/07 01:02:59;;;;;;;22.98;9.50;;;;;;;3.33;58.82;93512.72;5063758;28;20262;-71
2022/02/07 01:05:25;;;;;;;19.52;9.82;;;;;;;3.33;58.63;93502.97;5063565;28;20020;-71
2022/02/07 01:07:52;;;;;;;22.17;10.68;;;;;;;3.37;58.51;93493.44;5063699;28;20032;-71
2022/02/07 01:10:25;;;;;;;24.42;10.85;;;;;;;3.34;58.81;93483.47;5063625;28;20311;-71
2022/02/07 01:56:29;;;;;;;20.45;9.95;;;;;;;3.09;60.74;93417.84;5062779;28;20334;-71
2022/02/07 01:59:02;;;;;;;13.93;7.20;;;;;;;3.17;61.61;93410.13;5062616;28;20083;-71
2022/02/07 02:01:29;;;;;;;25.02;10.52;;;;;;;3.28;60.61;93384.50;5062785;28;20044;-71
2022/02/07 02:03:57;;;;;;;23.55;9.82;;;;;;;3.38;59.91;93399.41;5062787;28;20092;-71
2022/02/07 02:06:22;;;;;;;21.33;11.30;;;;;;;3.41;59.56;93398.84;5062712;28;20079;-71
2022/02/07 02:08:49;;;;;;;17.52;9.68;;;;;;;3.53;59.48;93395.84;5062612;28;20299;-71
2022/02/07 02:11:14;;;;;;;24.08;10.93;;;;;;;3.61;59.04;93408.41;5062340;28;20043;-71
2022/02/07 02:16:22;;;;;;;23.85;10.93;;;;;;;3.67;58.76;93383.56;5062532;28;20070;-71
2022/02/07 02:36:10;;;;;;;20.17;10.60;;;;;;;3.66;58.04;93378.56;5061517;28;20086;-70
2022/02/07 02:38:46;;;;;;;23.27;10.18;;;;;;;3.63;57.52;93364.09;5061990;28;20096;-70
2022/02/07 02:46:39;;;;;;;21.70;10.82;;;;;;;3.03;60.56;93397.88;5062116;28;20032;-70
2022/02/07 02:49:06;;;;;;;19.55;9.70;;;;;;;2.94;60.55;93395.84;5063306;28;20088;-70
2022/02/07 02:51:32;;;;;;;25.83;11.48;;;;;;;2.85;61.05;93394.88;5066305;28;20223;-70
2022/02/07 02:53:58;;;;;;;24.25;11.23;;;;;;;2.76;61.46;93370.22;5066309;28;20020;-70
2022/02/07 02:56:33;;;;;;;20.45;10.95;;;;;;;2.84;61.34;93356.44;5066366;28;20041;-70
2022/02/07 02:58:58;;;;;;;24.42;10.52;;;;;;;2.91;61.03;93346.41;5066071;28;20028;-71
2022/02/07 03:01:27;;;;;;;27.83;10.38;;;;;;;2.89;61.10;93364.31;5066240;28;20017;-71
2022/02/07 03:03:52;;;;;;;25.20;10.23;;;;;;;2.88;61.03;93328.53;5066212;28;20029;-70
2022/02/07 03:06:18;;;;;;;22.90;11.02;;;;;;;2.86;61.52;93364.84;5065884;28;20338;-70
2022/02/07 03:08:44;;;;;;;26.02;9.43;;;;;;;2.88;61.74;93365.38;5065850;28;20311;-71
2022/02/07 03:11:16;;;;;;;22.42;9.73;;;;;;;3.00;61.55;93352.63;5065776;28;20020;-71
2022/02/07 03:18:57;;;;;;;25.60;9.23;;;;;;;3.12;61.25;93348.84;5065734;28;20019;-71
2022/02/07 03:21:22;;;;;;;23.35;9.82;;;;;;;3.17;60.89;93322.44;5065866;28;20037;-71
2022/02/07 03:23:48;;;;;;;29.30;10.10;;;;;;;3.21;60.84;93342.66;5064457;28;20387;-72
2022/02/07 03:26:15;;;;;;;17.15;9.27;;;;;;;3.19;60.64;93344.78;5065552;28;20021;-71
2022/02/07 03:28:42;;;;;;;22.90;9.50;;;;;;;3.13;60.44;93350.41;5065617;28;20017;-72
2022/02/07 03:31:09;;;;;;;23.35;10.68;;;;;;;3.08;60.54;93353.09;5065704;28;20040;-72
2022/02/07 03:33:36;;;;;;;23.98;9.77;;;;;;;2.98;61.40;93364.50;5065426;28;20025;-71
2022/02/07 03:36:07;;;;;;;22.60;9.88;;;;;;;3.00;61.54;93357.09;5065530;28;20028;-71
2022/02/07 03:38:32;;;;;;;20.08;10.07;;;;;;;3.15;61.51;93359.56;5065317;28;20055;-71
2022/02/07 03:40:58;;;;;;;22.10;9.77;;;;;;;3.25;60.98;93340.25;5065369;28;20024;-71
2022/02/07 03:43:26;;;;;;;20.75;9.20;;;;;;;3.35;60.95;93348.06;5065277;28;20025;-70
2022/02/07 03:45:52;;;;;;;21.42;9.88;;;;;;;3.44;60.57;93352.72;5065412;28;20031;-71
2022/02/07 03:48:20;;;;;;;27.98;10.50;;;;;;;3.51;60.37;93347.91;5065260;28;20045;-71
2022/02/07 03:50:46;;;;;;;25.35;9.23;;;;;;;3.57;60.08;93338.88;5064870;28;20032;-70
2022/02/07 03:53:12;;;;;;;19.50;9.63;;;;;;;3.61;59.91;93319.56;5065241;28;20080;-70
2022/02/07 03:55:39;;;;;;;26.20;9.80;;;;;;;3.61;59.82;93301.13;5065244;28;20020;-71
2022/02/07 03:58:05;;;;;;;24.40;9.63;;;;;;;3.56;60.21;93305.66;5064983;28;20070;-71
2022/02/07 04:00:32;;;;;;;27.88;9.52;;;;;;;3.59;60.29;93328.84;5063648;28;20056;-70
2022/02/07 04:03:02;;;;;;;19.17;10.40;;;;;;;3.60;60.12;93322.47;5064976;28;20025;-71
2022/02/07 04:07:55;;;;;;;19.02;9.38;;;;;;;3.52;60.47;93338.91;5064966;28;20036;-71
2022/02/07 04:10:22;;;;;;;24.30;9.55;;;;;;;3.54;60.52;93339.41;5064789;28;20208;-71
2022/02/07 04:12:54;;;;;;;20.30;9.88;;;;;;;3.56;60.50;93339.91;5064396;28;20201;-70
2022/02/07 04:15:20;;;;;;;;;;;;;;;3.58;60.42;93335.97;5064668;28;20025;-71
2022/02/07 04:17:52;;;;;;;20.23;8.30;;;;;;;3.55;60.64;93331.25;5063952;28;19976;-72
2022/02/07 04:20:18;;;;;;;21.10;8.43;;;;;;;3.58;60.35;93345.69;5064551;28;20032;-71
2022/02/07 04:22:45;;;;;;;20.52;8.43;;;;;;;3.61;60.43;93342.50;5064515;28;20029;-71
2022/02/07 04:25:10;;;;;;;19.65;9.30;;;;;;;3.60;60.45;93348.84;5064606;28;20277;-71
2022/02/07 04:27:36;;;;;;;13.32;7.43;;;;;;;3.63;60.28;93300.84;5064442;28;20048;-71
2022/02/07 04:30:04;;;;;;;16.90;7.88;;;;;;;3.65;60.49;93293.44;5064549;28;20020;-72
2022/02/07 04:32:29;;;;;;;17.13;8.35;;;;;;;3.74;60.33;93318.09;5064226;28;20223;-72
2022/02/07 04:34:55;;;;;;;17.95;7.57;;;;;;;3.75;60.83;93305.72;5064480;28;20045;-71
2022/02/07 04:37:22;;;;;;;19.35;7.25;;;;;;;3.77;60.97;93307.00;5064219;28;20058;-71
2022/02/07 04:39:49;;;;;;;24.10;8.13;;;;;;;3.88;60.41;93305.00;5064324;28;20020;-72
2022/02/07 04:42:18;;;;;;;19.60;9.07;;;;;;;3.97;59.75;93310.44;5064378;28;20029;-72
2022/02/07 04:45:37;;;;;;;17.88;9.52;;;;;;;3.99;59.71;93303.03;5064327;28;20220;-71
2022/02/07 04:55:33;;;;;;;15.20;8.65;;;;;;;4.19;59.07;93294.00;5064081;28;20215;-71
2022/02/07 05:03:11;;;;;;;15.80;7.65;;;;;;;4.32;59.11;93284.63;5064003;28;20040;-71
2022/02/07 05:16:22;;;;;;;22.27;8.27;;;;;;;4.48;58.83;93271.94;5063717;28;20074;-71
2022/02/07 05:18:50;;;;;;;16.65;8.30;;;;;;;4.50;58.77;93275.06;5063617;28;20080;-71
2022/02/07 05:21:16;;;;;;;19.33;9.10;;;;;;;4.51;58.88;93258.19;5063357;28;20040;-71
2022/02/07 05:23:42;;;;;;;24.13;9.55;;;;;;;4.53;58.45;93264.72;5063453;28;20076;-71
2022/02/07 05:26:08;;;;;;;26.98;10.50;;;;;;;4.41;58.57;93275.72;5063470;28;20021;-71
2022/02/07 05:28:36;;;;;;;24.05;9.98;;;;;;;4.42;58.85;93260.69;5063564;28;20341;-71
2022/02/07 05:31:02;;;;;;;27.25;10.27;;;;;;;4.43;59.09;93254.34;5063481;28;20052;-71
2022/02/07 05:33:27;;;;;;;22.27;10.60;;;;;;;4.41;59.03;93245.94;5063635;28;20067;-71
2022/02/07 05:35:53;;;;;;;27.00;12.15;;;;;;;4.34;58.94;93251.59;5063164;28;20025;-71
2022/02/07 05:38:18;;;;;;;29.27;12.52;;;;;;;4.29;59.29;93235.81;5063100;28;20048;-71
2022/02/07 05:40:52;;;;;;;29.65;12.48;;;;;;;4.26;59.64;93233.00;5063227;28;20025;-70
2022/02/07 05:43:21;;;;;;;17.92;9.15;;;;;;;4.29;59.66;93253.50;5063040;28;20048;-71
2022/02/07 05:45:46;;;;;;;27.13;11.40;;;;;;;4.34;60.05;93261.34;5063209;28;20021;-72
2022/02/07 05:48:14;;;;;;;22.52;10.95;;;;;;;4.40;59.60;93295.28;5062985;28;20028;-72
2022/02/07 05:50:39;;;;;;;30.35;9.27;;;;;;;4.41;59.75;93286.28;5063045;28;20366;-72
2022/02/07 05:53:05;;;;;;;18.85;8.60;;;;;;;4.41;59.40;93288.91;5063053;28;20027;-72
2022/02/07 05:55:30;;;;;;;20.52;8.70;;;;;;;4.48;59.36;93304.41;5063138;28;20020;-72
2022/02/07 05:57:56;;;;;;;21.58;9.35;;;;;;;4.54;59.28;93297.97;5062791;28;20131;-72
2022/02/07 06:00:21;;;;;;;26.70;11.98;;;;;;;4.63;58.91;93306.00;5062858;28;20065;-72
2022/02/07 06:02:47;;;;;;;34.55;13.15;;;;;;;4.72;58.70;93306.13;5062865;28;20024;-70
2022/02/07 06:05:14;;;;;;;38.47;16.52;;;;;;;4.76;58.64;93300.00;5062944;28;20070;-71
2022/02/07 06:07:40;;;;;;;30.83;13.10;;;;;;;4.77;58.29;93306.84;5062638;28;20342;-69
2022/02/07 06:10:06;;;;;;;23.77;11.10;;;;;;;4.79;58.02;93278.28;5062625;28;20029;-71
2022/02/07 06:12:36;;;;;;;23.20;10.70;;;;;;;4.81;58.39;93278.00;5062223;28;20056;-70
2022/02/07 06:15:06;;;;;;;21.30;10.18;;;;;;;4.86;58.33;93277.91;5062708;28;20025;-70
2022/02/07 06:17:32;;;;;;;20.35;10.32;;;;;;;4.91;58.08;93275.19;5062546;28;20051;-70
2022/02/07 06:20:00;;;;;;;22.83;10.88;;;;;;;4.91;58.18;93259.34;5062806;28;20021;-71
2022/02/07 06:22:26;;;;;;;23.58;10.18;;;;;;;4.96;58.38;93261.09;5062502;28;20309;-71
2022/02/07 06:24:54;;;;;;;20.02;10.18;;;;;;;4.97;58.23;93255.53;5061771;28;20027;-71
2022/02/07 06:27:22;;;;;;;19.42;8.10;;;;;;;4.96;58.16;93267.16;5062322;28;20020;-71
2022/02/07 06:29:48;;;;;;;17.65;9.25;;;;;;;4.89;58.48;93258.84;5062480;28;20044;-70
2022/02/07 06:32:13;;;;;;;23.65;8.98;;;;;;;4.92;58.38;93257.47;5062522;28;20028;-71
2022/02/07 06:34:42;;;;;;;18.75;9.50;;;;;;;4.91;58.76;93254.06;5062234;28;20320;-70
2022/02/07 06:37:08;;;;;;;19.92;9.85;;;;;;;4.91;58.96;93255.91;5062154;28;20200;-71
2022/02/07 06:39:33;;;;;;;19.20;10.38;;;;;;;4.93;59.22;93249.25;5062155;28;20058;-70
2022/02/07 06:41:59;;;;;;;19.33;9.68;;;;;;;4.98;59.19;93259.72;5062225;28;20096;-70
2022/02/07 06:44:26;;;;;;;20.33;9.88;;;;;;;5.04;58.87;93276.25;5062132;28;20096;-69
2022/02/07 06:46:51;;;;;;;17.00;9.32;;;;;;;5.04;58.86;93289.47;5062244;28;20032;-71
2022/02/07 06:49:17;;;;;;;21.80;9.77;;;;;;;5.12;58.92;93286.16;5062220;28;20342;-71
2022/02/07 06:51:45;;;;;;;22.10;9.63;;;;;;;5.22;58.54;93293.09;5062229;28;20020;-71
2022/02/07 06:54:11;;;;;;;24.20;9.88;;;;;;;5.24;58.53;93288.31;5062022;28;20037;-71
2022/02/07 06:56:36;;;;;;;24.23;11.77;;;;;;;5.28;58.61;93268.16;5061989;28;20207;-71
2022/02/07 06:59:03;;;;;;;24.95;10.00;;;;;;;5.33;58.28;93249.56;5062055;28;20139;-72
2022/02/07 07:01:29;;;;;;;28.25;10.70;;;;;;;5.41;58.18;93253.38;5062159;28;20104;-71
2022/02/07 07:03:59;;;;;;;22.00;9.40;;;;;;;5.38;58.22;93244.16;5062117;28;20261;-71
2022/02/07 07:06:24;;;;;;;25.70;11.05;;;;;;;5.42;58.81;93229.28;5061848;28;20346;-79
2022/02/07 07:08:54;;;;;;;28.85;11.32;;;;;;;5.42;60.12;93245.16;5060830;28;20021;-80
2022/02/07 07:11:26;;;;;;;19.75;9.10;;;;;;;5.54;59.89;93242.00;5062571;28;20036;-88
2022/02/07 07:13:56;;;;;;;16.55;9.27;;;;;;;5.71;59.18;93246.66;5061794;28;20142;-69
2022/02/07 07:19:00;;;;;;;18.00;9.82;;;;;;;5.98;57.19;93245.88;5062137;28;20231;-71
2022/02/07 07:21:26;;;;;;;26.73;12.25;;;;;;;6.10;56.82;93221.50;5061977;28;20040;-71
2022/02/07 07:23:53;;;;;;;27.80;11.85;;;;;;;6.20;56.64;93221.25;5061756;28;20020;-71
2022/02/07 07:26:20;;;;;;;27.15;11.10;;;;;;;6.32;56.25;93227.91;5061557;28;20020;-72
2022/02/07 07:28:45;;;;;;;25.08;10.43;;;;;;;6.45;55.86;93234.97;5061294;28;20021;-72
2022/02/07 07:31:13;;;;;;;28.23;11.23;;;;;;;6.45;55.85;93239.50;5060132;28;20044;-72
2022/02/07 07:33:39;;;;;;;37.05;12.20;;;;;;;6.53;55.61;93231.59;5061829;28;20036;-72
2022/02/07 07:36:05;;;;;;;26.35;10.50;;;;;;;6.61;55.32;93216.84;5064467;28;20036;-71
2022/02/07 07:38:31;;;;;;;21.77;9.98;;;;;;;6.69;55.19;93218.00;5065557;28;20358;-71
2022/02/07 07:40:56;;;;;;;19.33;9.15;;;;;;;6.74;54.85;93184.22;5065253;28;20028;-69
2022/02/07 07:43:22;;;;;;;20.15;9.82;;;;;;;6.76;54.98;93181.28;5065267;28;20326;-71
2022/02/07 07:45:57;;;;;;;21.88;8.85;;;;;;;6.77;54.69;93177.53;5065808;28;20029;-70
2022/02/07 07:48:25;;;;;;;15.82;8.10;;;;;;;6.78;54.44;93173.81;5065289;28;20013;-74
2022/02/07 07:51:05;;;;;;;17.30;8.48;;;;;;;6.82;54.15;93158.84;5065305;28;20250;-72
2022/02/07 08:04:10;;;;;;;17.48;8.48;;;;;;;6.95;54.23;93216.25;5065172;28;20025;-80
2022/02/07 08:06:45;;;;;;;19.30;7.78;;;;;;;7.03;53.93;93186.34;5065034;28;20108;-77
2022/02/07 08:09:21;;;;;;;14.57;7.43;;;;;;;7.13;53.58;93173.91;5065086;28;20096;-78
2022/02/07 08:11:49;;;;;;;13.13;7.53;;;;;;;7.27;53.27;93176.44;5065086;28;20177;-79
2022/02/07 08:14:14;;;;;;;20.02;8.48;;;;;;;7.33;53.28;93151.34;5064013;28;20031;-77
2022/02/07 08:16:39;;;;;;;24.23;8.23;;;;;;;7.42;52.74;93139.66;5064812;28;20032;-76
2022/02/07 08:19:07;;;;;;;22.20;8.55;;;;;;;7.51;52.53;93130.94;5064496;28;20021;-79
2022/02/07 08:21:36;;;;;;;22.67;8.13;;;;;;;7.46;51.94;93128.44;5065338;28;20040;-77
2022/02/07 08:24:04;;;;;;;23.58;8.25;;;;;;;7.35;52.03;93144.66;5065239;28;20319;-76
2022/02/07 08:26:30;;;;;;;24.15;8.32;;;;;;;7.36;52.49;93126.88;5065061;28;20035;-78
2022/02/07 08:28:56;;;;;;;21.17;8.55;;;;;;;7.44;52.45;93110.19;5064940;28;20331;-78
2022/02/07 08:31:22;;;;;;;24.15;8.13;;;;;;;7.52;52.15;93090.06;5066993;28;20044;-76
2022/02/07 08:33:48;;;;;;;14.90;7.35;;;;;;;7.60;51.90;93084.75;5067496;28;20341;-77
2022/02/07 08:36:15;;;;;;;13.98;7.22;;;;;;;7.71;51.60;93090.53;5065828;28;20029;-79
2022/02/07 08:38:41;;;;;;;42.80;10.48;;;;;;;7.81;51.23;93102.69;5066053;28;20094;-77
2022/02/07 08:41:06;;;;;;;16.92;8.23;;;;;;;7.87;51.10;93127.19;5065959;28;20371;-77
2022/02/07 08:43:34;;;;;;;23.98;10.18;;;;;;;7.90;51.48;93110.66;5066562;28;20323;-77
2022/02/07 08:45:59;;;;;;;29.58;9.55;;;;;;;8.00;51.27;93083.78;5065414;28;20073;-78
2022/02/07 08:48:34;;;;;;;21.75;9.50;;;;;;;8.07;50.80;93094.69;5064896;28;20013;-79
2022/02/07 08:51:01;;;;;;;25.02;10.52;;;;;;;8.12;50.92;93091.09;5066708;28;20051;-81
2022/02/07 08:53:33;;;;;;;21.02;9.13;;;;;;;8.13;50.52;93072.19;5065108;28;20021;-77
2022/02/07 08:55:59;;;;;;;19.73;8.98;;;;;;;8.19;49.76;93044.38;5064548;28;20029;-79
2022/02/07 08:58:27;;;;;;;17.08;7.55;;;;;;;7.97;49.97;93044.59;5064407;28;20083;-79
2022/02/07 09:01:06;;;;;;;15.90;7.38;;;;;;;7.71;51.38;93039.34;5064105;28;20040;-81
2022/02/07 09:09:18;;;;;;;20.13;8.23;;;;;;;7.76;51.65;93090.38;5064132;28;20017;-79
2022/02/07 09:11:12;;;;;;;22.55;8.32;;;;;;;7.90;51.43;93081.47;5063287;28;20327;-77
2022/02/07 09:13:42;;;;;;;20.73;8.77;;;;;;;8.02;51.31;93093.00;5064145;28;20088;-76
2022/02/07 09:18:39;;;;;;;24.83;9.13;;;;;;;8.29;50.79;93084.97;5063630;28;20039;-78
2022/02/07 09:21:07;;;;;;;22.85;8.90;;;;;;;8.43;50.37;93099.63;5062520;28;20029;-76
2022/02/07 09:23:34;;;;;;;23.88;9.45;;;;;;;8.47;50.23;93091.81;5063823;28;20025;-76
2022/02/07 09:26:00;;;;;;;24.55;9.63;;;;;;;8.57;50.01;93086.16;5063777;28;20036;-79
2022/02/07 09:28:27;;;;;;;18.25;8.75;;;;;;;8.70;50.05;93086.25;5063791;28;20021;-78
2022/02/07 09:30:55;;;;;;;22.90;9.40;;;;;;;8.82;49.94;93091.66;5063472;28;20059;-77
2022/02/07 09:33:21;;;;;;;26.70;9.77;;;;;;;8.94;49.23;93083.78;5063316;28;20096;-75
2022/02/07 09:35:49;;;;;;;23.80;9.65;;;;;;;9.00;48.76;93085.16;5063223;28;20029;-74
2022/02/07 09:38:17;;;;;;;20.08;10.77;;;;;;;9.06;48.93;93085.75;5063379;28;20024;-77
2022/02/07 09:40:52;;;;;;;22.75;10.35;;;;;;;9.19;48.47;93073.31;5063397;28;20047;-78
2022/02/07 09:43:19;;;;;;;23.83;10.02;;;;;;;9.26;47.93;93073.59;5063391;28;20029;-78
2022/02/07 09:45:49;;;;;;;20.92;9.25;;;;;;;9.31;48.04;93061.97;5063078;28;20021;-77
2022/02/07 09:48:16;;;;;;;21.92;9.48;;;;;;;9.36;48.21;93041.31;5063183;28;20013;-75
2022/02/07 09:50:43;;;;;;;17.92;9.55;;;;;;;9.47;47.66;93043.56;5062880;28;20231;-76
2022/02/07 09:53:09;;;;;;;18.42;7.95;;;;;;;9.56;47.12;93017.66;5063230;28;20076;-77
2022/02/07 09:55:35;;;;;;;18.17;9.23;;;;;;;9.66;46.93;93022.56;5062980;28;20092;-74
2022/02/07 09:58:00;;;;;;;20.55;9.20;;;;;;;9.71;46.75;92997.63;5063039;28;20037;-77
2022/02/07 10:00:37;;;;;;;17.90;9.40;;;;;;;9.76;46.52;92992.91;5062777;28;20219;-77
2022/02/07 10:03:11;;;;;;;23.27;8.77;;;;;;;9.80;46.60;93012.41;5062792;28;20031;-77
2022/02/07 10:08:52;;;;;;;26.92;10.23;;;;;;;9.95;46.72;92967.66;5061574;28;20036;-76
2022/02/07 10:21:34;;;;;;;19.42;8.40;;;;;;;9.92;46.06;92949.69;5062850;28;20067;-77
2022/02/07 10:35:43;;;;;;;31.05;11.93;;;;;;;9.87;46.02;92909.97;5062441;28;20032;-78
2022/02/07 10:38:18;;;;;;;26.90;9.63;;;;;;;9.75;46.41;92900.88;5062342;28;20025;-73
2022/02/07 10:43:57;;;;;;;12.70;5.72;;;;;;;8.96;46.29;92878.84;5062389;28;20028;-70
2022/02/07 10:46:20;;;;;;;13.75;5.28;;;;;;;9.18;46.14;92885.66;5062028;28;20024;-70
2022/02/07 10:48:54;;;;;;;17.88;6.38;;;;;;;9.28;46.76;92865.84;5062205;28;20092;-72
2022/02/07 10:51:33;;;;;;;20.00;5.35;;;;;;;9.34;45.67;92857.34;5062329;28;20099;-70
2022/02/07 10:54:04;;;;;;;10.82;4.07;;;;;;;9.47;45.09;92865.34;5060211;28;20032;-70
2022/02/07 10:56:39;;;;;;;15.48;7.25;;;;;;;9.60;46.04;92874.91;5059496;28;20095;-71
2022/02/07 10:59:08;;;;;;;17.70;6.50;;;;;;;9.64;45.42;92862.50;5058958;28;20037;-71
2022/02/07 11:04:30;;;;;;;8.52;3.83;;;;;;;9.72;44.58;92869.59;5059922;28;20031;-71
2022/02/07 11:07:02;;;;;;;11.60;4.72;;;;;;;9.82;44.28;92866.50;5059776;28;20238;-70
2022/02/07 11:10:02;;;;;;;13.35;4.03;;;;;;;9.95;43.82;92866.50;5061822;28;20021;-71
2022/02/07 11:23:27;;;;;;;4.10;1.60;;;;;;;9.15;44.58;92836.56;5064764;28;20052;-71
2022/02/07 11:26:13;;;;;;;5.15;1.50;;;;;;;9.06;44.88;92829.78;5063100;28;20027;-71
2022/02/07 11:28:42;;;;;;;5.47;2.40;;;;;;;9.11;46.40;92806.44;5065730;28;20100;-70
2022/02/07 11:31:12;;;;;;;8.02;1.85;;;;;;;9.06;46.58;92797.88;5065662;28;20028;-71
2022/02/07 11:33:58;;;;;;;3.25;1.60;;;;;;;8.86;48.88;92816.22;5065659;28;20082;-71
2022/02/07 11:36:34;;;;;;;5.30;1.52;;;;;;;8.51;50.48;92778.56;5065362;28;20188;-72
2022/02/07 11:39:10;;;;;;;5.28;1.67;;;;;;;8.34;52.01;92756.34;5065606;28;20112;-75
2022/02/07 11:42:00;;;;;;;4.88;1.40;;;;;;;8.15;50.70;92740.88;5065469;28;20032;-74
2022/02/07 11:44:36;;;;;;;6.60;1.67;;;;;;;8.07;51.60;92747.03;5065363;28;20033;-75
2022/02/07 11:47:17;;;;;;;5.38;1.80;;;;;;;8.11;51.39;92757.78;5065456;28;20078;-75
2022/02/07 11:49:50;;;;;;;3.75;1.45;;;;;;;8.05;50.17;92714.75;5065935;28;20092;-86
2022/02/07 11:52:33;;;;;;;4.28;1.13;;;;;;;8.10;47.52;92685.34;5066275;28;20032;-87
2022/02/07 11:55:10;;;;;;;5.97;1.27;;;;;;;8.23;48.17;92684.28;5066816;28;20044;-85
2022/02/07 11:57:39;;;;;;;6.07;1.48;;;;;;;8.34;48.62;92673.25;5064869;28;20028;-86
2022/02/07 12:00:20;;;;;;;1.85;1.17;;;;;;;8.44;48.66;92668.34;5064570;28;20186;-85
2022/02/07 12:02:49;;;;;;;2.58;1.25;;;;;;;8.29;49.13;92668.94;5065911;28;20029;-88
2022/02/07 12:05:19;;;;;;;4.20;1.27;;;;;;;8.24;50.27;92658.50;5065296;28;20036;-81
2022/02/07 12:08:13;;;;;;;8.68;1.63;;;;;;;8.13;53.79;92628.97;5065605;28;20055;-81
2022/02/07 12:10:49;;;;;;;8.93;1.80;;;;;;;8.06;50.49;92620.78;5065697;28;20045;-81
2022/02/07 12:13:29;;;;;;;2.05;1.10;;;;;;;8.12;50.20;92598.22;5064184;28;20320;-81
2022/02/07 12:15:56;;;;;;;3.70;1.30;;;;;;;8.04;50.90;92644.97;5065229;28;20262;-80
2022/02/07 12:18:24;;;;;;;2.80;1.50;;;;;;;8.00;50.86;92654.69;5063860;28;20031;-82
2022/02/07 12:20:55;;;;;;;5.47;2.35;;;;;;;7.94;51.37;92655.22;5065115;28;20028;-82
2022/02/07 12:23:31;;;;;;;3.42;1.25;;;;;;;7.94;52.10;92650.69;5063325;28;20031;-83
2022/02/07 12:26:14;;;;;;;3.83;1.42;;;;;;;7.95;51.15;92683.28;5065010;28;20028;-85
2022/02/07 12:28:55;;;;;;;2.97;1.42;;;;;;;8.06;51.38;92694.28;5064658;28;20045;-81
2022/02/07 12:31:24;;;;;;;4.80;1.67;;;;;;;8.15;50.89;92684.38;5065218;28;20025;-82
2022/02/07 12:34:03;;;;;;;3.67;1.67;;;;;;;8.24;51.83;92696.47;5065001;28;20027;-86
2022/02/07 12:36:31;;;;;;;6.10;2.70;;;;;;;8.30;50.77;92704.22;5065054;28;20028;-82
2022/02/07 12:38:59;;;;;;;4.90;1.67;;;;;;;8.41;50.42;92721.34;5064976;28;20036;-82
2022/02/07 12:41:29;;;;;;;8.25;2.70;;;;;;;8.45;50.97;92735.50;5063775;28;20092;-79
2022/02/07 12:43:56;;;;;;;11.15;2.50;;;;;;;8.50;51.60;92713.28;5064656;28;20052;-81
2022/02/07 12:46:26;;;;;;;4.32;1.83;;;;;;;8.53;49.88;92710.75;5063623;28;20262;-83
2022/02/07 12:49:01;;;;;;;5.13;1.55;;;;;;;8.61;49.32;92715.19;5064453;28;20036;-82
2022/02/07 12:51:42;;;;;;;6.70;3.47;;;;;;;8.58;49.65;92699.13;5064555;28;20052;-80
2022/02/07 12:54:08;;;;;;;2.13;1.38;;;;;;;8.54;49.77;92690.28;5064653;28;20028;-79
2022/02/07 12:56:34;;;;;;;2.88;1.10;;;;;;;8.47;49.35;92650.19;5064670;28;20307;-79
2022/02/07 12:59:01;;;;;;;4.03;1.35;;;;;;;8.43;48.89;92632.28;5064663;28;20032;-78
2022/02/07 13:01:27;;;;;;;1.90;0.80;;;;;;;8.40;48.27;92653.38;5064621;28;20231;-79
2022/02/07 13:04:05;;;;;;;1.95;1.10;;;;;;;8.45;47.77;92663.81;5064195;28;20307;-83
2022/02/07 13:06:38;;;;;;;1.45;0.90;;;;;;;8.49;47.10;92642.66;5063512;28;20032;-81
2022/02/07 13:09:24;;;;;;;5.32;1.27;;;;;;;8.52;47.70;92637.50;5064513;28;20017;-86
2022/02/07 13:12:05;;;;;;;2.67;1.23;;;;;;;8.56;48.26;92656.97;5064427;28;20045;-81
2022/02/07 13:14:36;;;;;;;6.25;1.20;;;;;;;8.61;47.09;92670.06;5064632;28;20023;-83
2022/02/07 13:17:02;;;;;;;4.15;1.75;;;;;;;8.76;47.23;92683.81;5064504;28;20029;-82
2022/02/07 13:19:40;;;;;;;3.33;1.20;;;;;;;8.87;47.25;92708.06;5064019;28;20032;-81
2022/02/07 13:22:10;;;;;;;1.33;0.80;;;;;;;8.74;47.83;92707.25;5064222;28;20027;-79
2022/02/07 13:24:37;;;;;;;4.68;1.50;;;;;;;8.81;48.04;92678.25;5062666;28;20242;-79
2022/02/07 13:27:06;;;;;;;3.70;1.27;;;;;;;8.83;49.15;92674.19;5063876;28;20319;-80
2022/02/07 13:29:54;;;;;;;3.53;2.28;;;;;;;8.55;49.00;92671.38;5063721;28;20197;-80
2022/02/07 13:32:40;;;;;;;2.92;1.30;;;;;;;8.63;49.59;92680.34;5063578;28;20168;-82
2022/02/07 13:35:13;;;;;;;3.63;1.25;;;;;;;8.59;49.43;92653.66;5063597;28;20064;-80
2022/02/07 13:37:40;;;;;;;5.03;1.38;;;;;;;8.55;48.89;92657.31;5063414;28;20116;-84
2022/02/07 13:40:08;;;;;;;4.53;1.67;;;;;;;8.60;49.48;92646.47;5064021;28;20321;-85
2022/02/07 13:42:38;;;;;;;2.97;1.20;;;;;;;8.59;49.18;92658.97;5063752;28;20025;-84
2022/02/07 13:45:11;;;;;;;2.78;1.20;;;;;;;8.57;49.83;92661.19;5063693;28;20079;-84
2022/02/07 13:47:40;;;;;;;5.82;1.38;;;;;;;8.55;50.42;92652.78;5063163;28;20025;-85
2022/02/07 13:50:05;;;;;;;5.38;2.20;;;;;;;8.52;50.20;92666.69;5063773;28;20044;-81
2022/02/07 13:52:36;;;;;;;5.80;1.73;;;;;;;8.49;49.68;92643.47;5062451;28;20347;-83
2022/02/07 13:55:24;;;;;;;3.63;1.35;;;;;;;8.59;50.41;92640.38;5063749;28;20032;-85
2022/02/07 13:57:59;;;;;;;3.92;1.25;;;;;;;8.68;49.95;92655.44;5063249;28;20092;-84
2022/02/07 14:00:53;;;;;;;4.72;2.00;;;;;;;8.74;49.69;92654.13;5063264;28;20024;-83
2022/02/07 14:03:32;;;;;;;2.97;1.25;;;;;;;8.78;49.50;92636.44;5095524;28;20052;-81
2022/02/07 14:06:10;;;;;;;3.47;1.65;;;;;;;8.69;50.12;92631.22;5063277;28;20016;-82
2022/02/07 14:08:40;;;;;;;2.42;1.00;;;;;;;8.58;49.73;92614.16;5063408;28;20049;-85
2022/02/07 14:11:20;;;;;;;2.45;1.17;;;;;;;8.66;50.31;92610.63;5061706;28;20322;-81
2022/02/07 14:13:46;;;;;;;2.88;1.42;;;;;;;8.72;49.75;92609.28;5062779;28;20092;-84
2022/02/07 14:16:14;;;;;;;3.17;1.30;;;;;;;8.84;49.94;92633.22;5063127;28;20040;-80
2022/02/07 14:18:45;;;;;;;3.03;1.20;;;;;;;8.94;48.79;92645.28;5063171;28;20025;-81
2022/02/07 14:21:17;;;;;;;6.13;1.80;;;;;;;9.02;48.61;92654.28;5062881;28;20031;-86
2022/02/07 14:23:44;;;;;;;6.82;1.63;;;;;;;8.93;49.10;92648.28;5062674;28;20307;-85
2022/02/07 14:26:15;;;;;;;9.00;2.65;;;;;;;8.64;50.92;92644.69;5062700;28;20311;-85
2022/02/07 14:28:41;;;;;;;4.28;1.98;;;;;;;8.62;52.15;92652.22;5061480;28;20025;-83
2022/02/07 14:31:08;;;;;;;6.45;1.65;;;;;;;8.43;52.53;92623.53;5062709;28;20024;-84